createdAt,value
2023-02-13T00:00:46.793Z,-0.74
2023-02-13T00:01:46.814Z,-0.76
2023-02-13T00:02:46.805Z,-0.81
2023-02-13T00:03:46.804Z,-0.86
2023-02-13T00:04:46.744Z,-1.02
2023-02-13T00:05:46.808Z,-1.08
2023-02-13T00:06:46.734Z,-1.15
2023-02-13T00:07:46.700Z,-1.11
2023-02-13T00:08:46.729Z,-1.18
2023-02-13T00:09:46.678Z,-1.13
2023-02-13T00:10:46.676Z,-1.14
2023-02-13T00:11:46.656Z,-1.11
2023-02-13T00:12:46.644Z,-0.96
2023-02-13T00:13:46.691Z,-0.80
2023-02-13T00:14:46.633Z,-0.68
2023-02-13T00:15:46.665Z,-0.65
2023-02-13T00:16:46.637Z,-0.58
2023-02-13T00:17:46.637Z,-0.49
2023-02-13T00:18:46.592Z,-0.49
2023-02-13T00:19:46.577Z,-0.58
2023-02-13T00:20:46.601Z,-0.42
2023-02-13T00:21:46.577Z,-0.12
2023-02-13T00:22:46.693Z,-0.06
2023-02-13T00:23:46.534Z,-0.12
2023-02-13T00:24:46.525Z,-0.20
2023-02-13T00:25:46.518Z,-0.30
2023-02-13T00:26:46.513Z,-0.39
2023-02-13T00:27:46.524Z,-0.55
2023-02-13T00:28:46.484Z,-0.63
2023-02-13T00:29:46.488Z,-0.67
2023-02-13T00:30:46.510Z,-0.53
2023-02-13T00:31:46.573Z,-0.52
2023-02-13T00:32:46.533Z,-0.50
2023-02-13T00:33:46.430Z,-0.20
2023-02-13T00:34:46.432Z,-0.14
2023-02-13T00:35:46.449Z,-0.17
2023-02-13T00:36:46.429Z,-0.38
2023-02-13T00:37:46.406Z,-0.47
2023-02-13T00:38:46.352Z,-0.53
2023-02-13T00:39:46.377Z,-0.56
2023-02-13T00:40:46.299Z,-0.71
2023-02-13T00:41:46.336Z,-0.76
2023-02-13T00:42:46.337Z,-0.92
2023-02-13T00:43:46.387Z,-0.90
2023-02-13T00:44:46.321Z,-0.95
2023-02-13T00:45:46.309Z,-0.97
2023-02-13T00:46:46.350Z,-1.11
2023-02-13T00:47:46.280Z,-1.15
2023-02-13T00:48:46.297Z,-1.15
2023-02-13T00:49:46.406Z,-1.21
2023-02-13T00:50:46.258Z,-1.23
2023-02-13T00:51:46.397Z,-1.26
2023-02-13T00:52:46.250Z,-1.33
2023-02-13T00:53:46.164Z,-1.49
2023-02-13T00:54:46.145Z,-1.38
2023-02-13T00:55:46.110Z,-1.28
2023-02-13T00:56:46.181Z,-1.35
2023-02-13T00:57:46.191Z,-1.41
2023-02-13T00:58:46.266Z,-1.49
2023-02-13T00:59:46.171Z,-1.33
2023-02-13T01:00:46.142Z,-1.39
2023-02-13T01:01:46.202Z,-1.35
2023-02-13T01:02:46.132Z,-1.35
2023-02-13T01:03:46.101Z,-1.36
2023-02-13T01:04:46.123Z,-1.35
2023-02-13T01:05:46.062Z,-1.47
2023-02-13T01:06:46.117Z,-1.56
2023-02-13T01:07:46.047Z,-1.56
2023-02-13T01:08:46.024Z,-1.65
2023-02-13T01:09:46.009Z,-1.62
2023-02-13T01:10:45.981Z,-1.68
2023-02-13T01:11:45.967Z,-1.71
2023-02-13T01:12:46.041Z,-1.72
2023-02-13T01:13:45.937Z,-1.74
2023-02-13T01:14:46.022Z,-1.72
2023-02-13T01:15:46.090Z,-1.77
2023-02-13T01:16:46.019Z,-1.72
2023-02-13T01:17:46.901Z,-1.72
2023-02-13T01:18:46.439Z,-1.64
2023-02-13T01:19:45.959Z,-1.62
2023-02-13T01:20:45.945Z,-1.72
2023-02-13T01:21:45.975Z,-1.75
2023-02-13T01:22:45.928Z,-1.70
2023-02-13T01:23:45.958Z,-1.64
2023-02-13T01:24:45.910Z,-1.35
2023-02-13T01:25:45.902Z,-1.03
2023-02-13T01:26:45.883Z,-0.70
2023-02-13T01:27:45.886Z,-0.08
2023-02-13T01:28:45.896Z,0.45
2023-02-13T01:29:45.934Z,0.82
2023-02-13T01:30:45.911Z,1.02
2023-02-13T01:31:45.991Z,1.07
2023-02-13T01:32:45.823Z,1.28
2023-02-13T01:33:45.936Z,1.36
2023-02-13T01:34:45.805Z,1.42
2023-02-13T01:35:45.744Z,1.53
2023-02-13T01:36:45.771Z,1.68
2023-02-13T01:37:45.710Z,1.68
2023-02-13T01:38:45.699Z,1.81
2023-02-13T01:39:45.662Z,1.77
2023-02-13T01:40:45.683Z,1.74
2023-02-13T01:41:45.741Z,1.65
2023-02-13T01:42:45.690Z,1.68
2023-02-13T01:43:45.705Z,1.67
2023-02-13T01:44:45.618Z,1.71
2023-02-13T01:45:45.647Z,1.71
2023-02-13T01:46:45.629Z,1.70
2023-02-13T01:47:45.577Z,1.68
2023-02-13T01:48:45.576Z,1.49
2023-02-13T01:49:45.555Z,1.64
2023-02-13T01:50:45.557Z,1.68
2023-02-13T01:51:45.547Z,1.64
2023-02-13T01:52:45.523Z,1.61
2023-02-13T01:53:45.544Z,1.56
2023-02-13T01:54:45.500Z,1.56
2023-02-13T01:55:45.561Z,1.54
2023-02-13T01:56:45.587Z,1.57
2023-02-13T01:57:45.576Z,1.57
2023-02-13T01:58:45.589Z,1.56
2023-02-13T01:59:45.536Z,1.56
2023-02-13T02:00:45.517Z,1.65
2023-02-13T02:01:45.592Z,1.60
2023-02-13T02:02:45.587Z,1.75
2023-02-13T02:03:45.459Z,1.72
2023-02-13T02:04:45.488Z,1.85
2023-02-13T02:05:45.498Z,1.93
2023-02-13T02:06:45.458Z,2.01
2023-02-13T02:07:45.467Z,1.95
2023-02-13T02:08:45.528Z,2.04
2023-02-13T02:09:45.445Z,1.90
2023-02-13T02:10:45.432Z,2.04
2023-02-13T02:11:45.420Z,2.05
2023-02-13T02:12:45.408Z,2.04
2023-02-13T02:13:45.428Z,2.19
2023-02-13T02:14:45.512Z,2.11
2023-02-13T02:15:45.375Z,2.04
2023-02-13T02:16:45.395Z,2.07
2023-02-13T02:17:45.365Z,2.04
2023-02-13T02:18:45.483Z,2.11
2023-02-13T02:19:45.342Z,2.23
2023-02-13T02:20:45.339Z,2.20
2023-02-13T02:21:45.319Z,2.08
2023-02-13T02:22:45.350Z,2.15
2023-02-13T02:23:45.318Z,2.08
2023-02-13T02:24:45.273Z,2.14
2023-02-13T02:25:45.294Z,2.23
2023-02-13T02:26:45.273Z,2.18
2023-02-13T02:27:45.156Z,2.12
2023-02-13T02:28:45.327Z,2.14
2023-02-13T02:29:45.139Z,2.15
2023-02-13T02:30:45.269Z,2.04
2023-02-13T02:31:45.181Z,2.14
2023-02-13T02:32:45.258Z,2.15
2023-02-13T02:33:45.144Z,2.25
2023-02-13T02:34:45.200Z,2.30
2023-02-13T02:35:45.080Z,2.20
2023-02-13T02:36:45.199Z,2.33
2023-02-13T02:37:45.060Z,2.19
2023-02-13T02:38:45.206Z,2.33
2023-02-13T02:39:45.040Z,2.44
2023-02-13T02:40:45.027Z,2.44
2023-02-13T02:41:45.044Z,2.43
2023-02-13T02:42:45.906Z,2.29
2023-02-13T02:43:45.178Z,2.29
2023-02-13T02:44:45.096Z,2.37
2023-02-13T02:45:44.981Z,2.44
2023-02-13T02:46:45.144Z,2.40
2023-02-13T02:47:44.965Z,2.45
2023-02-13T02:48:44.958Z,2.38
2023-02-13T02:49:44.936Z,2.38
2023-02-13T02:50:45.083Z,2.41
2023-02-13T02:51:44.982Z,2.45
2023-02-13T02:52:45.004Z,2.51
2023-02-13T02:53:45.066Z,2.63
2023-02-13T02:54:44.991Z,2.48
2023-02-13T02:55:44.869Z,2.45
2023-02-13T02:56:44.966Z,2.55
2023-02-13T02:57:44.963Z,2.50
2023-02-13T02:58:44.866Z,2.45
2023-02-13T02:59:44.836Z,2.44
2023-02-13T03:00:44.897Z,2.58
2023-02-13T03:01:44.934Z,2.56
2023-02-13T03:02:44.903Z,2.51
2023-02-13T03:03:45.083Z,2.62
2023-02-13T03:04:44.877Z,2.59
2023-02-13T03:05:44.841Z,2.56
2023-02-13T03:06:44.870Z,2.63
2023-02-13T03:07:44.841Z,2.58
2023-02-13T03:08:44.842Z,2.61
2023-02-13T03:09:44.807Z,2.45
2023-02-13T03:10:44.756Z,2.48
2023-02-13T03:11:44.854Z,2.61
2023-02-13T03:12:44.782Z,2.50
2023-02-13T03:13:44.926Z,2.59
2023-02-13T03:14:44.791Z,2.51
2023-02-13T03:15:44.738Z,2.48
2023-02-13T03:16:44.883Z,2.58
2023-02-13T03:17:44.812Z,2.47
2023-02-13T03:18:44.752Z,2.40
2023-02-13T03:19:44.752Z,2.37
2023-02-13T03:20:44.824Z,2.40
2023-02-13T03:21:44.680Z,2.38
2023-02-13T03:22:44.588Z,2.33
2023-02-13T03:23:44.685Z,2.23
2023-02-13T03:24:44.664Z,2.08
2023-02-13T03:25:44.624Z,2.08
2023-02-13T03:26:44.629Z,1.90
2023-02-13T03:27:44.667Z,1.81
2023-02-13T03:28:44.648Z,1.65
2023-02-13T03:29:44.567Z,1.53
2023-02-13T03:30:44.664Z,1.75
2023-02-13T03:31:44.636Z,1.67
2023-02-13T03:32:44.605Z,1.88
2023-02-13T03:33:44.721Z,2.04
2023-02-13T03:34:44.585Z,1.92
2023-02-13T03:35:44.471Z,1.93
2023-02-13T03:36:44.521Z,1.92
2023-02-13T03:37:44.426Z,1.74
2023-02-13T03:38:44.528Z,1.43
2023-02-13T03:39:44.419Z,1.26
2023-02-13T03:40:44.408Z,1.10
2023-02-13T03:41:44.397Z,1.02
2023-02-13T03:42:44.472Z,0.84
2023-02-13T03:43:44.458Z,0.62
2023-02-13T03:44:44.472Z,0.49
2023-02-13T03:45:44.469Z,0.40
2023-02-13T03:46:44.426Z,0.16
2023-02-13T03:47:44.327Z,0.15
2023-02-13T03:48:44.458Z,0.07
2023-02-13T03:49:44.328Z,-0.01
2023-02-13T03:50:44.515Z,-0.08
2023-02-13T03:51:44.381Z,-0.14
2023-02-13T03:52:44.374Z,-0.23
2023-02-13T03:53:44.325Z,-0.27
2023-02-13T03:54:44.330Z,-0.30
2023-02-13T03:55:44.268Z,-0.37
2023-02-13T03:56:44.317Z,-0.45
2023-02-13T03:57:44.513Z,-0.47
2023-02-13T03:58:44.400Z,-0.47
2023-02-13T03:59:44.285Z,-0.56
2023-02-13T04:00:44.370Z,-0.74
2023-02-13T04:01:44.311Z,-0.71
2023-02-13T04:02:44.279Z,-0.67
2023-02-13T04:03:44.303Z,-0.59
2023-02-13T04:04:44.249Z,-0.49
2023-02-13T04:05:44.227Z,-0.30
2023-02-13T04:06:44.213Z,0.07
2023-02-13T04:07:44.227Z,0.13
2023-02-13T04:08:44.148Z,0.43
2023-02-13T04:09:44.178Z,0.56
2023-02-13T04:10:44.174Z,0.72
2023-02-13T04:11:44.077Z,0.51
2023-02-13T04:12:44.148Z,0.48
2023-02-13T04:13:44.204Z,0.45
2023-02-13T04:14:44.133Z,0.41
2023-02-13T04:15:44.126Z,0.25
2023-02-13T04:16:44.142Z,0.08
2023-02-13T04:17:44.109Z,0.08
2023-02-13T04:18:44.207Z,-0.03
2023-02-13T04:19:44.075Z,-0.16
2023-02-13T04:20:44.049Z,-0.37
2023-02-13T04:21:44.016Z,-0.55
2023-02-13T04:22:44.097Z,-0.63
2023-02-13T04:23:43.972Z,-0.74
2023-02-13T04:24:44.040Z,-0.71
2023-02-13T04:25:43.943Z,-0.77
2023-02-13T04:26:44.092Z,-0.95
2023-02-13T04:27:43.932Z,-1.07
2023-02-13T04:28:44.458Z,-1.13
2023-02-13T04:29:44.015Z,-1.21
2023-02-13T04:30:44.211Z,-1.36
2023-02-13T04:31:44.057Z,-1.38
2023-02-13T04:32:43.972Z,-1.32
2023-02-13T04:33:43.925Z,-1.43
2023-02-13T04:34:43.954Z,-1.44
2023-02-13T04:35:43.849Z,-1.47
2023-02-13T04:36:43.925Z,-1.32
2023-02-13T04:37:43.828Z,-1.44
2023-02-13T04:38:43.839Z,-1.61
2023-02-13T04:39:43.842Z,-1.68
2023-02-13T04:40:43.883Z,-1.68
2023-02-13T04:41:43.793Z,-1.49
2023-02-13T04:42:43.871Z,-1.47
2023-02-13T04:43:43.775Z,-1.46
2023-02-13T04:44:43.820Z,-1.56
2023-02-13T04:45:43.849Z,-1.65
2023-02-13T04:46:43.841Z,-1.64
2023-02-13T04:47:43.823Z,-1.70
2023-02-13T04:48:43.736Z,-1.70
2023-02-13T04:49:50.732Z,-1.72
2023-02-13T04:50:43.669Z,-1.70
2023-02-13T04:51:43.657Z,-1.67
2023-02-13T04:52:43.675Z,-1.68
2023-02-13T04:53:43.675Z,-1.77
2023-02-13T04:54:43.641Z,-1.77
2023-02-13T04:55:43.618Z,-1.72
2023-02-13T04:56:43.631Z,-1.80
2023-02-13T04:57:43.590Z,-1.68
2023-02-13T04:58:43.603Z,-1.71
2023-02-13T04:59:43.615Z,-1.72
2023-02-13T05:00:43.566Z,-1.59
2023-02-13T05:01:43.753Z,-1.62
2023-02-13T05:02:43.545Z,-1.64
2023-02-13T05:03:43.549Z,-1.59
2023-02-13T05:04:43.615Z,-1.62
2023-02-13T05:05:43.514Z,-1.67
2023-02-13T05:06:43.499Z,-1.74
2023-02-13T05:07:43.483Z,-1.68
2023-02-13T05:08:43.513Z,-1.72
2023-02-13T05:09:43.466Z,-1.80
2023-02-13T05:10:43.464Z,-1.82
2023-02-13T05:11:43.591Z,-1.75
2023-02-13T05:12:43.436Z,-1.71
2023-02-13T05:13:43.447Z,-1.78
2023-02-13T05:14:43.414Z,-1.75
2023-02-13T05:15:43.499Z,-1.92
2023-02-13T05:16:43.404Z,-1.93
2023-02-13T05:17:43.421Z,-1.98
2023-02-13T05:18:43.465Z,-2.10
2023-02-13T05:19:43.369Z,-2.04
2023-02-13T05:20:43.378Z,-1.96
2023-02-13T05:21:43.349Z,-1.80
2023-02-13T05:22:43.337Z,-1.54
2023-02-13T05:23:43.330Z,-1.56
2023-02-13T05:24:43.332Z,-1.67
2023-02-13T05:25:43.358Z,-1.68
2023-02-13T05:26:43.322Z,-1.67
2023-02-13T05:27:43.306Z,-1.65
2023-02-13T05:28:43.397Z,-1.71
2023-02-13T05:29:43.271Z,-1.82
2023-02-13T05:30:43.321Z,-1.90
2023-02-13T05:31:43.406Z,-1.89
2023-02-13T05:32:43.252Z,-1.93
2023-02-13T05:33:43.245Z,-1.92
2023-02-13T05:34:43.215Z,-1.85
2023-02-13T05:35:43.201Z,-1.89
2023-02-13T05:36:43.201Z,-1.75
2023-02-13T05:37:43.190Z,-1.89
2023-02-13T05:38:43.192Z,-1.95
2023-02-13T05:39:43.160Z,-1.95
2023-02-13T05:40:43.168Z,-1.85
2023-02-13T05:41:43.146Z,-1.93
2023-02-13T05:42:43.153Z,-1.88
2023-02-13T05:43:43.143Z,-1.75
2023-02-13T05:44:43.121Z,-1.72
2023-02-13T05:45:43.122Z,-1.72
2023-02-13T05:46:43.192Z,-1.80
2023-02-13T05:47:43.106Z,-1.65
2023-02-13T05:48:43.069Z,-1.56
2023-02-13T05:49:43.061Z,-1.41
2023-02-13T05:50:43.063Z,-1.41
2023-02-13T05:51:43.051Z,-1.39
2023-02-13T05:52:43.031Z,-1.39
2023-02-13T05:53:43.072Z,-1.43
2023-02-13T05:54:43.014Z,-1.39
2023-02-13T05:55:43.029Z,-1.35
2023-02-13T05:56:43.043Z,-1.25
2023-02-13T05:57:42.994Z,-1.25
2023-02-13T05:58:42.980Z,-1.14
2023-02-13T05:59:42.967Z,-1.13
2023-02-13T06:00:42.944Z,-1.07
2023-02-13T06:01:42.929Z,-1.00
2023-02-13T06:02:42.992Z,-0.92
2023-02-13T06:03:42.994Z,-0.81
2023-02-13T06:04:42.947Z,-0.81
2023-02-13T06:05:42.914Z,-0.76
2023-02-13T06:06:42.879Z,-0.63
2023-02-13T06:07:42.879Z,-0.55
2023-02-13T06:08:42.887Z,-0.47
2023-02-13T06:09:42.856Z,-0.34
2023-02-13T06:10:45.138Z,-0.23
2023-02-13T06:11:42.851Z,-0.27
2023-02-13T06:12:42.834Z,-0.19
2023-02-13T06:13:42.883Z,-0.20
2023-02-13T06:14:42.794Z,-0.21
2023-02-13T06:15:42.826Z,-0.24
2023-02-13T06:16:42.776Z,-0.27
2023-02-13T06:17:42.767Z,-0.26
2023-02-13T06:18:42.829Z,-0.20
2023-02-13T06:19:42.753Z,-0.23
2023-02-13T06:20:42.748Z,-0.21
2023-02-13T06:21:42.736Z,-0.21
2023-02-13T06:22:42.724Z,-0.23
2023-02-13T06:23:42.722Z,-0.26
2023-02-13T06:24:42.687Z,-0.21
2023-02-13T06:25:42.687Z,-0.23
2023-02-13T06:26:42.681Z,-0.19
2023-02-13T06:27:42.743Z,-0.20
2023-02-13T06:28:42.826Z,-0.16
2023-02-13T06:29:42.707Z,-0.01
2023-02-13T06:30:42.694Z,0.05
2023-02-13T06:31:42.705Z,0.08
2023-02-13T06:32:42.650Z,0.07
2023-02-13T06:33:42.699Z,0.05
2023-02-13T06:34:42.602Z,0.07
2023-02-13T06:35:42.586Z,0.08
2023-02-13T06:36:42.569Z,0.08
2023-02-13T06:37:42.740Z,0.05
2023-02-13T06:38:42.544Z,0.16
2023-02-13T06:39:42.561Z,0.10
2023-02-13T06:40:42.536Z,0.10
2023-02-13T06:41:42.518Z,0.08
2023-02-13T06:42:42.504Z,0.05
2023-02-13T06:43:42.502Z,0.04
2023-02-13T06:44:42.504Z,0.10
2023-02-13T06:45:42.493Z,0.19
2023-02-13T06:46:42.549Z,0.23
2023-02-13T06:47:42.455Z,0.22
2023-02-13T06:48:42.467Z,0.31
2023-02-13T06:49:42.441Z,0.34
2023-02-13T06:50:42.459Z,0.30
2023-02-13T06:51:42.470Z,0.34
2023-02-13T06:52:42.399Z,0.30
2023-02-13T06:53:42.449Z,0.34
2023-02-13T06:54:47.658Z,0.31
2023-02-13T06:55:43.389Z,0.44
2023-02-13T06:56:42.412Z,0.40
2023-02-13T06:57:42.352Z,0.43
2023-02-13T06:58:42.383Z,0.49
2023-02-13T06:59:42.354Z,0.33
2023-02-13T07:00:42.459Z,0.37
2023-02-13T07:01:42.320Z,0.31
2023-02-13T07:02:42.347Z,0.31
2023-02-13T07:03:42.318Z,0.44
2023-02-13T07:04:42.302Z,0.48
2023-02-13T07:05:42.285Z,0.52
2023-02-13T07:06:42.285Z,0.56
2023-02-13T07:07:42.253Z,0.49
2023-02-13T07:08:42.252Z,0.63
2023-02-13T07:09:42.247Z,0.52
2023-02-13T07:10:42.243Z,0.51
2023-02-13T07:11:42.232Z,0.43
2023-02-13T07:12:42.219Z,0.41
2023-02-13T07:13:42.201Z,0.60
2023-02-13T07:14:42.218Z,0.62
2023-02-13T07:15:42.185Z,0.45
2023-02-13T07:16:42.175Z,0.44
2023-02-13T07:17:42.160Z,0.49
2023-02-13T07:18:42.164Z,0.43
2023-02-13T07:19:42.123Z,0.52
2023-02-13T07:20:42.132Z,0.62
2023-02-13T07:21:42.133Z,0.59
2023-02-13T07:22:42.108Z,0.71
2023-02-13T07:23:42.121Z,0.78
2023-02-13T07:24:42.077Z,0.89
2023-02-13T07:25:42.390Z,1.04
2023-02-13T07:26:42.045Z,1.06
2023-02-13T07:27:42.497Z,1.06
2023-02-13T07:28:42.118Z,1.04
2023-02-13T07:29:42.065Z,1.14
2023-02-13T07:30:42.077Z,1.13
2023-02-13T07:31:42.042Z,1.21
2023-02-13T07:32:42.066Z,1.31
2023-02-13T07:33:41.977Z,1.32
2023-02-13T07:34:52.371Z,1.35
2023-02-13T07:35:42.952Z,1.35
2023-02-13T07:36:41.947Z,1.29
2023-02-13T07:37:41.936Z,1.24
2023-02-13T07:38:41.963Z,1.10
2023-02-13T07:39:41.921Z,1.17
2023-02-13T07:40:41.923Z,1.21
2023-02-13T07:41:41.905Z,1.39
2023-02-13T07:42:41.913Z,1.67
2023-02-13T07:43:41.897Z,2.01
2023-02-13T07:44:41.864Z,2.15
2023-02-13T07:45:41.846Z,2.43
2023-02-13T07:46:41.913Z,2.79
2023-02-13T07:47:41.831Z,2.58
2023-02-13T07:48:41.924Z,2.62
2023-02-13T07:49:41.850Z,2.77
2023-02-13T07:50:41.870Z,3.10
2023-02-13T07:51:41.796Z,3.13
2023-02-13T07:52:41.854Z,2.89
2023-02-13T07:53:41.800Z,3.16
2023-02-13T07:54:41.812Z,3.34
2023-02-13T07:55:41.759Z,3.12
2023-02-13T07:56:41.736Z,2.73
2023-02-13T07:57:41.728Z,2.71
2023-02-13T07:58:41.862Z,2.40
2023-02-13T07:59:41.709Z,2.18
2023-02-13T08:00:41.775Z,2.07
2023-02-13T08:01:41.729Z,2.04
2023-02-13T08:02:41.671Z,2.11
2023-02-13T08:03:41.845Z,1.95
2023-02-13T08:04:41.704Z,1.83
2023-02-13T08:05:41.646Z,1.68
2023-02-13T08:06:41.641Z,1.57
2023-02-13T08:07:41.631Z,1.64
2023-02-13T08:08:41.821Z,1.64
2023-02-13T08:09:41.605Z,1.72
2023-02-13T08:10:41.788Z,1.83
2023-02-13T08:11:41.595Z,2.00
2023-02-13T08:12:41.577Z,2.47
2023-02-13T08:13:41.580Z,2.83
2023-02-13T08:14:41.565Z,3.04
2023-02-13T08:15:41.859Z,3.20
2023-02-13T08:16:41.719Z,3.12
2023-02-13T08:17:41.569Z,3.28
2023-02-13T08:18:41.604Z,3.20
2023-02-13T08:19:41.487Z,3.41
2023-02-13T08:20:41.508Z,3.25
2023-02-13T08:21:41.481Z,3.54
2023-02-13T08:22:41.464Z,3.64
2023-02-13T08:23:41.548Z,3.63
2023-02-13T08:24:41.463Z,3.46
2023-02-13T08:25:41.464Z,3.10
2023-02-13T08:26:41.443Z,3.10
2023-02-13T08:27:41.452Z,3.15
2023-02-13T08:28:41.515Z,3.23
2023-02-13T08:29:41.432Z,3.23
2023-02-13T08:30:41.437Z,3.41
2023-02-13T08:31:41.471Z,3.15
2023-02-13T08:32:53.403Z,2.90
2023-02-13T08:33:42.353Z,2.69
2023-02-13T08:34:42.429Z,2.73
2023-02-13T08:35:41.375Z,2.56
2023-02-13T08:36:41.348Z,2.48
2023-02-13T08:37:41.296Z,2.37
2023-02-13T08:38:41.483Z,2.40
2023-02-13T08:39:41.274Z,2.40
2023-02-13T08:40:41.272Z,2.26
2023-02-13T08:41:41.298Z,2.36
2023-02-13T08:42:41.262Z,2.63
2023-02-13T08:43:41.261Z,2.71
2023-02-13T08:44:41.236Z,2.94
2023-02-13T08:45:41.305Z,3.25
2023-02-13T08:46:41.216Z,3.34
2023-02-13T08:47:41.199Z,3.67
2023-02-13T08:48:41.239Z,3.77
2023-02-13T08:49:41.337Z,3.72
2023-02-13T08:50:41.158Z,3.81
2023-02-13T08:51:41.167Z,3.74
2023-02-13T08:52:41.167Z,3.95
2023-02-13T08:53:41.143Z,4.13
2023-02-13T08:54:41.128Z,4.53
2023-02-13T08:55:41.107Z,4.67
2023-02-13T08:56:41.105Z,4.93
2023-02-13T08:57:41.102Z,4.96
2023-02-13T08:58:41.095Z,5.05
2023-02-13T08:59:41.065Z,5.41
2023-02-13T09:00:41.086Z,5.78
2023-02-13T09:01:41.151Z,6.17
2023-02-13T09:02:41.149Z,6.28
2023-02-13T09:03:41.053Z,6.69
2023-02-13T09:04:41.013Z,7.27
2023-02-13T09:05:41.020Z,7.60
2023-02-13T09:06:40.991Z,8.09
2023-02-13T09:07:41.032Z,7.99
2023-02-13T09:08:41.012Z,8.39
2023-02-13T09:09:40.991Z,8.89
2023-02-13T09:10:40.955Z,9.20
2023-02-13T09:11:40.933Z,9.60
2023-02-13T09:12:40.929Z,9.78
2023-02-13T09:13:40.987Z,9.60
2023-02-13T09:14:40.917Z,9.83
2023-02-13T09:15:40.895Z,9.81
2023-02-13T09:16:40.972Z,9.40
2023-02-13T09:17:40.881Z,8.49
2023-02-13T09:18:40.878Z,8.17
2023-02-13T09:19:40.868Z,8.13
2023-02-13T09:20:41.251Z,8.31
2023-02-13T09:21:40.831Z,8.28
2023-02-13T09:22:40.824Z,8.22
2023-02-13T09:23:40.834Z,8.25
2023-02-13T09:24:40.863Z,8.03
2023-02-13T09:25:40.789Z,7.89
2023-02-13T09:26:40.786Z,7.60
2023-02-13T09:27:40.770Z,7.57
2023-02-13T09:28:41.733Z,7.23
2023-02-13T09:29:40.864Z,7.21
2023-02-13T09:30:40.888Z,7.48
2023-02-13T09:31:40.909Z,7.81
2023-02-13T09:32:40.718Z,8.27
2023-02-13T09:33:40.739Z,8.43
2023-02-13T09:34:40.749Z,8.98
2023-02-13T09:35:40.693Z,9.37
2023-02-13T09:36:40.734Z,8.89
2023-02-13T09:37:40.959Z,9.34
2023-02-13T09:38:40.810Z,9.55
2023-02-13T09:39:40.645Z,9.71
2023-02-13T09:40:40.652Z,9.55
2023-02-13T09:41:40.665Z,9.85
2023-02-13T09:42:40.675Z,10.04
2023-02-13T09:43:40.651Z,10.20
2023-02-13T09:44:40.594Z,9.99
2023-02-13T09:45:40.596Z,9.81
2023-02-13T09:46:40.745Z,9.91
2023-02-13T09:47:41.437Z,10.32
2023-02-13T09:48:40.566Z,10.58
2023-02-13T09:49:40.556Z,10.47
2023-02-13T09:50:40.524Z,10.55
2023-02-13T09:51:40.521Z,10.65
2023-02-13T09:52:40.516Z,10.16
2023-02-13T09:53:40.531Z,9.75
2023-02-13T09:54:40.478Z,10.17
2023-02-13T09:55:40.679Z,10.84
2023-02-13T09:56:40.514Z,10.99
2023-02-13T09:57:40.447Z,10.57
2023-02-13T09:58:40.753Z,10.69
2023-02-13T09:59:40.430Z,10.58
2023-02-13T10:00:40.420Z,10.60
2023-02-13T10:01:40.488Z,10.63
2023-02-13T10:02:40.407Z,10.32
2023-02-13T10:03:40.435Z,10.14
2023-02-13T10:04:40.601Z,10.10
2023-02-13T10:05:40.359Z,9.99
2023-02-13T10:06:40.351Z,9.86
2023-02-13T10:07:40.343Z,10.04
2023-02-13T10:08:40.397Z,9.96
2023-02-13T10:09:40.341Z,9.98
2023-02-13T10:10:40.402Z,9.96
2023-02-13T10:11:40.317Z,9.85
2023-02-13T10:12:40.366Z,9.98
2023-02-13T10:13:40.424Z,10.11
2023-02-13T10:14:40.262Z,10.26
2023-02-13T10:15:40.326Z,10.39
2023-02-13T10:16:40.294Z,10.46
2023-02-13T10:17:40.247Z,10.52
2023-02-13T10:18:40.283Z,10.47
2023-02-13T10:19:40.216Z,10.49
2023-02-13T10:20:40.215Z,10.43
2023-02-13T10:21:40.287Z,10.57
2023-02-13T10:22:40.452Z,10.66
2023-02-13T10:23:40.182Z,11.03
2023-02-13T10:24:40.157Z,11.08
2023-02-13T10:25:40.188Z,11.12
2023-02-13T10:26:40.133Z,10.99
2023-02-13T10:27:40.125Z,10.70
2023-02-13T10:28:40.183Z,10.55
2023-02-13T10:29:40.120Z,10.31
2023-02-13T10:30:40.184Z,10.38
2023-02-13T10:31:40.544Z,10.32
2023-02-13T10:32:40.062Z,10.43
2023-02-13T10:33:40.082Z,10.57
2023-02-13T10:34:40.042Z,10.57
2023-02-13T10:35:40.072Z,10.44
2023-02-13T10:36:40.032Z,10.44
2023-02-13T10:37:40.020Z,10.44
2023-02-13T10:38:40.043Z,10.55
2023-02-13T10:39:40.298Z,10.62
2023-02-13T10:40:40.021Z,10.63
2023-02-13T10:41:39.977Z,10.73
2023-02-13T10:42:39.961Z,11.02
2023-02-13T10:43:40.025Z,11.23
2023-02-13T10:44:39.960Z,11.30
2023-02-13T10:45:39.956Z,11.36
2023-02-13T10:46:39.948Z,11.45
2023-02-13T10:47:39.968Z,11.31
2023-02-13T10:48:41.057Z,11.48
2023-02-13T10:49:40.593Z,11.54
2023-02-13T10:50:39.873Z,11.60
2023-02-13T10:51:39.865Z,11.60
2023-02-13T10:52:39.887Z,11.49
2023-02-13T10:53:39.855Z,11.39
2023-02-13T10:54:39.854Z,11.48
2023-02-13T10:55:39.818Z,11.51
2023-02-13T10:56:39.836Z,11.67
2023-02-13T10:57:41.028Z,11.30
2023-02-13T10:58:40.457Z,11.16
2023-02-13T10:59:39.790Z,11.62
2023-02-13T11:00:40.957Z,11.51
2023-02-13T11:01:39.855Z,11.41
2023-02-13T11:02:39.772Z,11.53
2023-02-13T11:03:39.758Z,11.31
2023-02-13T11:04:39.815Z,11.41
2023-02-13T11:05:39.710Z,11.23
2023-02-13T11:06:39.766Z,11.48
2023-02-13T11:07:40.374Z,11.70
2023-02-13T11:08:39.710Z,11.72
2023-02-13T11:09:39.673Z,12.12
2023-02-13T11:10:39.647Z,12.15
2023-02-13T11:11:39.645Z,11.93
2023-02-13T11:12:39.661Z,11.88
2023-02-13T11:13:39.644Z,11.59
2023-02-13T11:14:39.608Z,11.41
2023-02-13T11:15:41.025Z,11.67
2023-02-13T11:16:40.210Z,12.29
2023-02-13T11:17:39.585Z,12.01
2023-02-13T11:18:39.574Z,11.90
2023-02-13T11:19:39.554Z,11.72
2023-02-13T11:20:39.579Z,11.64
2023-02-13T11:21:39.561Z,11.62
2023-02-13T11:22:39.560Z,11.97
2023-02-13T11:23:39.569Z,12.16
2023-02-13T11:24:39.565Z,12.18
2023-02-13T11:25:39.490Z,12.07
2023-02-13T11:26:39.486Z,12.07
2023-02-13T11:27:39.494Z,12.13
2023-02-13T11:28:39.520Z,11.77
2023-02-13T11:29:39.476Z,11.81
2023-02-13T11:30:39.439Z,12.07
2023-02-13T11:31:39.589Z,12.15
2023-02-13T11:32:39.446Z,12.38
2023-02-13T11:33:39.557Z,12.51
2023-02-13T11:34:39.385Z,12.46
2023-02-13T11:35:39.378Z,12.51
2023-02-13T11:36:39.397Z,12.40
2023-02-13T11:37:39.367Z,12.38
2023-02-13T11:38:39.361Z,12.54
2023-02-13T11:39:39.377Z,12.04
2023-02-13T11:40:39.350Z,11.78
2023-02-13T11:41:39.456Z,12.16
2023-02-13T11:42:39.642Z,12.11
2023-02-13T11:43:39.373Z,12.01
2023-02-13T11:44:39.292Z,11.77
2023-02-13T11:45:39.284Z,12.00
2023-02-13T11:46:39.332Z,11.90
2023-02-13T11:47:39.275Z,12.11
2023-02-13T11:48:39.307Z,12.41
2023-02-13T11:49:39.241Z,12.30
2023-02-13T11:50:39.527Z,12.26
2023-02-13T11:51:39.204Z,12.08
2023-02-13T11:52:39.195Z,12.43
2023-02-13T11:53:39.238Z,12.66
2023-02-13T11:54:39.194Z,12.61
2023-02-13T11:55:39.167Z,12.62
2023-02-13T11:56:45.777Z,12.59
2023-02-13T11:57:40.140Z,12.54
2023-02-13T11:58:39.280Z,12.79
2023-02-13T11:59:39.200Z,12.55
2023-02-13T12:00:39.766Z,12.71
2023-02-13T12:01:39.104Z,12.99
2023-02-13T12:02:39.192Z,13.09
2023-02-13T12:03:39.135Z,12.71
2023-02-13T12:04:39.227Z,13.06
2023-02-13T12:05:39.073Z,13.10
2023-02-13T12:06:39.045Z,13.04
2023-02-13T12:07:39.107Z,12.92
2023-02-13T12:08:39.143Z,12.84
2023-02-13T12:09:39.503Z,12.84
2023-02-13T12:10:39.018Z,12.63
2023-02-13T12:11:39.017Z,12.59
2023-02-13T12:12:38.978Z,12.76
2023-02-13T12:13:39.051Z,12.84
2023-02-13T12:14:38.987Z,12.84
2023-02-13T12:15:38.995Z,12.69
2023-02-13T12:16:39.021Z,12.79
2023-02-13T12:17:39.099Z,12.62
2023-02-13T12:18:41.149Z,12.62
2023-02-13T12:19:38.930Z,12.54
2023-02-13T12:20:38.922Z,12.46
2023-02-13T12:21:38.883Z,12.43
2023-02-13T12:22:38.888Z,12.51
2023-02-13T12:23:38.909Z,12.25
2023-02-13T12:24:38.882Z,11.97
2023-02-13T12:25:38.982Z,12.00
2023-02-13T12:26:39.088Z,12.22
2023-02-13T12:27:39.996Z,12.26
2023-02-13T12:28:38.995Z,12.30
2023-02-13T12:29:39.126Z,12.40
2023-02-13T12:30:38.858Z,12.41
2023-02-13T12:31:38.819Z,12.46
2023-02-13T12:32:38.805Z,12.51
2023-02-13T12:33:38.826Z,12.56
2023-02-13T12:34:38.794Z,12.52
2023-02-13T12:35:38.899Z,12.61
2023-02-13T12:36:39.519Z,12.71
2023-02-13T12:37:38.714Z,12.59
2023-02-13T12:38:38.699Z,12.67
2023-02-13T12:39:38.728Z,12.63
2023-02-13T12:40:38.695Z,12.51
2023-02-13T12:41:38.797Z,12.37
2023-02-13T12:42:38.662Z,12.40
2023-02-13T12:43:38.675Z,12.18
2023-02-13T12:44:38.713Z,11.97
2023-02-13T12:45:38.788Z,11.87
2023-02-13T12:46:39.840Z,11.93
2023-02-13T12:47:38.599Z,11.74
2023-02-13T12:48:38.648Z,11.45
2023-02-13T12:49:38.617Z,11.44
2023-02-13T12:50:38.594Z,11.56
2023-02-13T12:51:38.569Z,11.09
2023-02-13T12:52:38.651Z,11.02
2023-02-13T12:53:38.683Z,11.11
2023-02-13T12:54:38.531Z,11.05
2023-02-13T12:55:38.519Z,11.08
2023-02-13T12:56:38.543Z,11.05
2023-02-13T12:57:38.497Z,10.88
2023-02-13T12:58:38.524Z,10.81
2023-02-13T12:59:38.502Z,10.93
2023-02-13T13:00:38.500Z,11.27
2023-02-13T13:01:38.502Z,11.39
2023-02-13T13:02:38.575Z,11.44
2023-02-13T13:03:38.446Z,11.56
2023-02-13T13:04:38.457Z,11.51